Flight Track Log - Related Links

Times and Time Zones

All times are in EDT time to prevent confusion due to time zone crossing. See the SWA59 flight status page for this flight to view local times or setup timezone preferences in your user account.

Time Position Orientation Groundspeed Altitude Reporting Facility
EDT Latitude Longitude Course Direction KTS MPH feet Rate Location/Type
Tue 12:46:30 AM 32.7253 -96.7739 152° Southeast 193 222 6,800  Level Fort Worth Center
Tue 12:47:30 AM 32.6606 -96.7422 158° South 263 303 9,900 3,350 Climbing Fort Worth Center
Tue 12:48:30 AM 32.5703 -96.6961 157° South 308 354 13,500 3,400 Climbing Fort Worth Center
Tue 12:49:30 AM 32.4908 -96.6547 156° South 338 389 16,700 2,100 Climbing Fort Worth Center
Tue 12:50:30 AM 32.3903 -96.6064 158° South 357 411 17,700 2,400 Climbing Fort Worth Center
Tue 12:51:30 AM 32.3044 -96.5631 157° South 357 411 21,500 3,450 Climbing Fort Worth Center
Tue 12:52:30 AM 32.1997 -96.5125 158° South 362 417 24,600 2,700 Climbing Fort Worth Center
Tue 12:53:30 AM 32.0950 -96.4569 156° South 392 451 26,900 2,700 Climbing Fort Worth Center
Tue 12:54:30 AM 31.9881 -96.4042 157° South 417 480 30,000 3,000 Climbing Fort Worth Center
Tue 12:55:30 AM 31.8811 -96.3517 157° South 410 472 32,900 1,500 Climbing Fort Worth Center
Tue 12:56:30 AM 31.7867 -96.3039 157° South 410 472 33,000 32 Climbing Fort Worth Center
Tue 12:58:38 AM 31.5586 -96.1908 157° South 412 474 33,000  Level Houston Center
Tue 12:59:38 AM 31.4533 -96.1403 158° South 406 467 33,000  Level Houston Center
Tue 01:00:38 AM 31.3475 -96.0869 157° South 406 467 33,000 -400 Level Houston Center
Tue 01:01:38 AM 31.2489 -96.0400 158° South 406 467 32,200 -893 Descending Houston Center
Tue 01:02:39 AM 31.1433 -95.9883 157° South 410 472 31,200 -1,091 Descending Houston Center
Tue 01:03:39 AM 31.0369 -95.9375 158° South 413 475 30,000 -1,884 Descending Houston Center
Tue 01:04:05 AM 30.9797 -95.9086 157° South 412 474 28,500 -2,600 Descending Houston Center
Tue 01:04:39 AM 30.9314 -95.8853 158° South 413 475 27,400 -2,471 Descending Houston Center
Tue 01:05:30 AM 30.8264 -95.8364 158° South 404 465 25,000 -2,491 Descending Houston Center
Tue 01:06:25 AM 30.7411 -95.7956 158° South 394 453 23,000 -2,314 Descending Houston Center
Tue 01:06:40 AM 30.7133 -95.7794 153° Southeast 392 451 22,300 -2,500 Descending Houston Center
Tue 01:07:25 AM 30.6358 -95.7447 159° South 383 441 20,500 -2,100 Descending Houston Center
Tue 01:07:40 AM 30.6217 -95.7364 153° Southeast 384 442 20,200 -1,814 Descending Houston Center
Tue 01:08:08 AM 30.5681 -95.7114 158° South 376 433 19,200 -1,900 Descending Houston Center
Tue 01:08:40 AM 30.5267 -95.6911 157° South 372 428 18,300 -2,000 Descending Houston Center
Tue 01:09:14 AM 30.4714 -95.6647 158° South 348 400 17,000 -2,066 Descending Houston Center
Tue 01:09:41 AM 30.4383 -95.6483 157° South 349 402 16,200 -1,475 Descending Houston Center
Tue 01:10:15 AM 30.3761 -95.6322 167° South 329 379 15,500 -1,300 Descending Houston Center
Tue 01:10:41 AM 30.3472 -95.6236 166° South 337 388 14,900 -1,522 Descending Houston Center
Tue 01:11:22 AM 30.2767 -95.6006 164° South 334 384 13,800 -1,600 Descending Houston Center
Tue 01:11:41 AM 30.2583 -95.5956 167° South 331 381 13,300 -1,700 Descending Houston Center
Tue 01:12:22 AM 30.1906 -95.5744 165° South 326 375 12,100 -1,700 Descending Houston Center
Tue 01:12:41 AM 30.1717 -95.5694 167° South 325 374 11,600 -1,770 Descending Houston Center
Tue 01:13:23 AM 30.1042 -95.5486 165° South 317 365 10,300 -1,574 Descending Houston Center
Tue 01:13:42 AM 30.0861 -95.5433 166° South 321 369 10,000 -218 Descending Houston Center
Tue 01:14:18 AM 30.0286 -95.5261 165° South 290 334 10,100 -100 Climbing Houston Center
Tue 01:14:42 AM 30.0064 -95.5186 164° South 302 348 9,900 -1,100 Descending Houston Center
Tue 01:15:18 AM 29.9531 -95.5036 166° South 282 325 9,000 -1,500 Descending Houston Center
Tue 01:15:42 AM 29.9319 -95.4964 163° South 281 323 8,400 -1,475 Descending Houston Center
Tue 01:16:19 AM 29.8778 -95.4814 166° South 280 322 7,500 -1,500 Descending Houston Center
Tue 01:16:42 AM 29.8567 -95.4742 163° South 281 323 6,900 -1,500 Descending Houston Center
Tue 01:17:19 AM 29.8003 -95.4617 169° South 264 304 6,000 -1,000 Descending Houston Center
Tue 01:17:42 AM 29.7842 -95.4606 177° South 268 308 5,900 -885 Descending Houston Center
Tue 01:18:20 AM 29.7328 -95.4578 177° South 234 269 5,100 -1,279 Descending Houston Center
Tue 01:18:43 AM 29.7181 -95.4553 172° South 244 281 4,600 -1,672 Descending Houston Center
Tue 01:19:21 AM 29.6628 -95.4517 177° South 251 289 3,400 -1,600 Descending Houston Center
Tue 01:19:43 AM 29.6494 -95.4519 181° South 247 284 3,000 -300 Descending Houston Center
Tue 01:20:21 AM 29.6014 -95.4447 173° South 201 231 3,100  Climbing Houston Center
Tue 01:20:43 AM 29.5931 -95.4364 139° Southeast 225 259 3,000 -98 Descending Houston Center
Tue 01:21:22 AM 29.5686 -95.4078 134° Southeast 140 161 3,000 -200 Level Houston Center
Tue 01:21:43 AM 29.5656 -95.4003 115° Southeast 165 190 2,800 -900 Descending Houston Center
Tue 01:22:22 AM 29.5772 -95.3633 70° East 158 182 2,100 -1,082 Descending Houston Center
Tue 01:22:44 AM 29.5806 -95.3550 65° Northeast 158 182 1,700 -984 Descending Houston Center
Tue 01:23:23 AM 29.6031 -95.3242 50° Northeast 138 159 1,100 -800 Descending Houston Center
Tue 01:23:44 AM 29.6075 -95.3206 35° Northeast 150 173 900 -689 Descending Houston Center
Tue 01:24:24 AM 29.6278 -95.2972 45° Northeast 126 145 400 -700 Descending Houston Center
Tue 01:24:44 AM 29.6333 -95.2928 35° Northeast 137 158 200 -225 Descending Houston Center
Tue 01:25:44 AM 29.6589 -95.2653 43° Northeast 135 155 100 -100 Descending Houston Center

Login

Don't have an account? Register now (free) for customized features, flight alerts, and more!